Oana — V7KS7 — position and weather

sailwx.info

Track history (hours):
 
Tides and Currents Weather Stations Pressure Air Temp Water Temp Dewpoint Dewpoint Depression Visibility Wind Speed Wind Dir Waves Ship Positions

Oana

Last reported at 2017-Oct-19 06:54 UTC. Time now 2017-Oct-19 20:10 UTC.
Position N 36°47' E 013°31'.

Length 101 m; draft 6.5 m.

Type: Tanker. MMSI: 538002673.

Date/timePositionNaut miles runAvg speedWind from/ knotsBaromVisibWave heightAir tempDewpointWater temp
2017-Oct-19 06:54N 36°47' E 013°31'613.5
2017-Oct-19 06:28N 36°45' E 013°38'813.4
2017-Oct-19 05:51N 36°42' E 013°47'513.3
2017-Oct-19 05:30N 36°41' E 013°53'713.3
2017-Oct-19 05:00N 36°38' E 014°00'713.3
2017-Oct-19 04:30N 36°36' E 014°08'612.8
2017-Oct-19 04:00N 36°33' E 014°16'612.7
2017-Oct-19 03:30N 36°32' E 014°23'612.6
2017-Oct-19 03:00N 36°30' E 014°31'612.3
2017-Oct-19 02:30N 36°28' E 014°38'2412.7
2017-Oct-19 00:39N 36°19' E 015°05'512.0
2017-Oct-19 00:13N 36°21' E 015°11'612.8
2017-Oct-18 23:44N 36°21' E 015°19'44813.6
2017-Oct-17 14:52N 35°40' E 024°30'  
Track history (hours):
 
Tides and Currents Weather Stations Pressure Air Temp Water Temp Dewpoint Dewpoint Depression Visibility Wind Speed Wind Dir Waves Ship Positions

Oana

Last reported at 2017-Oct-19 06:54 UTC. Time now 2017-Oct-19 20:10 UTC.
Position N 36°47' E 013°31'.

Length 101 m; draft 6.5 m.

Type: Tanker. MMSI: 538002673.

Date/timePositionNaut miles runAvg speedWind from/ knotsBaromVisibWave heightAir tempDewpointWater temp
2017-Oct-19 06:54N 36°47' E 013°31'613.5
2017-Oct-19 06:28N 36°45' E 013°38'813.4
2017-Oct-19 05:51N 36°42' E 013°47'513.3
2017-Oct-19 05:30N 36°41' E 013°53'713.3
2017-Oct-19 05:00N 36°38' E 014°00'713.3
2017-Oct-19 04:30N 36°36' E 014°08'612.8
2017-Oct-19 04:00N 36°33' E 014°16'612.7
2017-Oct-19 03:30N 36°32' E 014°23'612.6
2017-Oct-19 03:00N 36°30' E 014°31'612.3
2017-Oct-19 02:30N 36°28' E 014°38'2412.7
2017-Oct-19 00:39N 36°19' E 015°05'512.0
2017-Oct-19 00:13N 36°21' E 015°11'612.8
2017-Oct-18 23:44N 36°21' E 015°19'44813.6
2017-Oct-17 14:52N 35°40' E 024°30'  

Dump ship's entire track history